Time;durP1;ratioP1;P1;durP2;ratioP2;P2;SDS_P1;SDS_P2;PMS_P1;PMS_P2;Temp;Humidity;BMP_temperature;BMP_pressure;BME280_temperature;BME280_humidity;BME280_pressure;Samples;Min_cycle;Max_cycle;Signal;HPM_P1;HPM_P2
2023/01/18 00:00:40;;;;;;;24.13;13.05;;;1.10;99.90;;;;;;5049650;28;20216;-76
2023/01/18 00:03:10;;;;;;;27.08;14.27;;;1.10;99.90;;;;;;5050112;28;20195;-77
2023/01/18 00:05:39;;;;;;;31.75;17.23;;;1.10;99.90;;;;;;5051201;28;20169;-77
2023/01/18 00:08:15;;;;;;;30.40;19.40;;;1.10;99.90;;;;;;5051320;28;20623;-80
2023/01/18 00:10:41;;;;;;;32.38;16.35;;;1.10;99.90;;;;;;5051154;28;20218;-77
2023/01/18 00:13:07;;;;;;;34.90;15.20;;;1.10;99.90;;;;;;5051254;28;20190;-77
2023/01/18 00:15:33;;;;;;;22.17;13.07;;;1.10;99.90;;;;;;5049734;28;20410;-76
2023/01/18 00:17:59;;;;;;;24.27;12.80;;;1.10;99.90;;;;;;5051069;28;20426;-77
2023/01/18 00:20:26;;;;;;;26.10;13.27;;;1.10;99.90;;;;;;5050817;28;20281;-77
2023/01/18 00:22:52;;;;;;;27.92;12.90;;;1.10;99.90;;;;;;5050827;28;20467;-76
2023/01/18 00:25:20;;;;;;;26.20;12.97;;;1.00;99.90;;;;;;5049350;28;20571;-76
2023/01/18 00:27:52;;;;;;;20.63;11.00;;;1.00;99.90;;;;;;5050938;28;20174;-77
2023/01/18 00:30:19;;;;;;;18.90;12.00;;;0.80;99.90;;;;;;5049628;28;20227;-76
2023/01/18 00:32:46;;;;;;;18.33;10.52;;;0.80;99.90;;;;;;5033319;28;20185;-77
2023/01/18 00:35:12;;;;;;;16.40;10.88;;;0.80;99.90;;;;;;5050864;28;20754;-76
2023/01/18 00:37:38;;;;;;;24.98;13.02;;;0.70;99.90;;;;;;5051319;28;20211;-76
2023/01/18 00:40:05;;;;;;;20.83;11.80;;;0.80;99.90;;;;;;5051017;28;20183;-77
2023/01/18 00:45:15;;;;;;;20.40;12.07;;;0.80;99.90;;;;;;5051566;28;20302;-75
2023/01/18 00:47:40;;;;;;;19.53;11.50;;;0.90;99.90;;;;;;5049576;28;20262;-76
2023/01/18 00:50:07;;;;;;;21.40;12.33;;;0.90;99.90;;;;;;5050736;28;20189;-77
2023/01/18 00:52:33;;;;;;;21.55;12.40;;;0.90;99.90;;;;;;5050796;28;20192;-76
2023/01/18 00:55:00;;;;;;;24.02;11.63;;;0.90;99.90;;;;;;5051212;28;20191;-76
2023/01/18 00:57:25;;;;;;;26.55;12.32;;;0.90;99.90;;;;;;5050877;28;20262;-76
2023/01/18 00:59:51;;;;;;;25.03;14.40;;;0.90;99.90;;;;;;5049990;28;20262;-75
2023/01/18 01:02:16;;;;;;;26.53;14.40;;;0.90;99.90;;;;;;5049681;28;20201;-75
2023/01/18 01:07:26;;;;;;;26.08;13.05;;;0.90;99.90;;;;;;5049746;28;20614;-75
2023/01/18 01:09:51;;;;;;;26.20;13.20;;;0.90;99.90;;;;;;5048771;28;20724;-75
2023/01/18 01:28:30;;;;;;;26.55;14.15;;;0.60;99.90;;;;;;5050274;28;20191;-75
2023/01/18 01:31:01;;;;;;;29.00;14.93;;;0.60;99.90;;;;;;5048044;28;20243;-75
2023/01/18 01:33:28;;;;;;;26.42;13.57;;;0.60;99.90;;;;;;5049460;28;20422;-75
2023/01/18 01:35:59;;;;;;;23.08;12.98;;;0.70;99.90;;;;;;5049683;28;20183;-75
2023/01/18 01:38:27;;;;;;;22.23;13.88;;;0.70;99.90;;;;;;5048988;28;20290;-75
2023/01/18 01:40:59;;;;;;;26.77;13.05;;;0.80;99.90;;;;;;5049066;28;21015;-75
2023/01/18 01:43:46;;;;;;;26.45;12.90;;;0.80;99.90;;;;;;5047676;28;20191;-77
2023/01/18 01:46:36;;;;;;;21.80;12.75;;;0.80;99.90;;;;;;5047928;28;20187;-76
2023/01/18 01:49:38;;;;;;;20.30;11.07;;;0.70;99.90;;;;;;5047570;28;20179;-76
2023/01/18 01:52:10;;;;;;;20.95;12.43;;;0.70;99.90;;;;;;5031116;28;20695;-75
2023/01/18 01:54:41;;;;;;;27.38;13.45;;;0.70;99.90;;;;;;5047635;28;20609;-75
2023/01/18 01:57:12;;;;;;;24.83;12.70;;;0.60;99.90;;;;;;5048805;28;20579;-75
2023/01/18 01:59:43;;;;;;;19.42;11.55;;;0.60;99.90;;;;;;5047248;28;20200;-75
2023/01/18 02:02:09;;;;;;;20.70;11.82;;;0.50;99.90;;;;;;5049290;28;20215;-77
2023/01/18 02:04:35;;;;;;;18.98;10.63;;;0.50;99.90;;;;;;5047915;28;20186;-77
2023/01/18 02:07:01;;;;;;;23.13;12.07;;;0.40;99.90;;;;;;5049238;28;20234;-75
2023/01/18 02:09:27;;;;;;;22.30;11.60;;;0.40;99.90;;;;;;5049077;28;20195;-75
2023/01/18 02:11:54;;;;;;;19.50;11.77;;;0.30;99.90;;;;;;5030739;28;20214;-76
2023/01/18 02:14:26;;;;;;;17.67;11.23;;;0.30;99.90;;;;;;5049717;28;20188;-77
2023/01/18 02:17:06;;;;;;;16.98;10.30;;;0.20;99.90;;;;;;5047955;28;20234;-76
2023/01/18 02:20:01;;;;;;;22.88;12.38;;;0.30;99.90;;;;;;5049614;28;20259;-76
2023/01/18 02:22:45;;;;;;;19.83;11.30;;;0.40;99.90;;;;;;5053559;28;20214;-76
2023/01/18 02:26:04;;;;;;;15.68;10.15;;;0.50;99.90;;;;;;5052004;28;20641;-76
2023/01/18 02:28:36;;;;;;;23.63;11.88;;;0.60;99.90;;;;;;5053428;28;20179;-76
2023/01/18 02:31:20;;;;;;;17.80;10.65;;;0.60;99.90;;;;;;5053055;28;20754;-76
2023/01/18 02:33:49;;;;;;;19.00;11.40;;;0.70;99.90;;;;;;5051510;28;20219;-77
2023/01/18 02:36:29;;;;;;;15.13;9.82;;;0.70;99.90;;;;;;5051431;28;20294;-76
2023/01/18 02:39:01;;;;;;;21.35;12.38;;;0.80;99.90;;;;;;5053119;28;20172;-76
2023/01/18 02:47:23;;;;;;;17.90;12.02;;;0.80;99.90;;;;;;5052846;28;20855;-75
2023/01/18 02:49:49;;;;;;;19.55;12.45;;;0.80;99.90;;;;;;5052881;28;20184;-75
2023/01/18 02:52:38;;;;;;;21.80;12.50;;;0.80;99.90;;;;;;5052281;28;20262;-76
2023/01/18 02:55:05;;;;;;;20.83;11.88;;;0.90;99.90;;;;;;5052591;28;20259;-76
2023/01/18 02:57:32;;;;;;;22.25;12.93;;;0.80;99.90;;;;;;5052553;28;20325;-75
2023/01/18 03:00:00;;;;;;;24.33;13.48;;;0.90;99.90;;;;;;5050905;28;20203;-75
2023/01/18 03:02:26;;;;;;;19.10;12.20;;;0.90;99.90;;;;;;5052710;28;20638;-75
2023/01/18 03:04:53;;;;;;;26.00;14.50;;;0.90;99.90;;;;;;5052561;28;20191;-76
2023/01/18 03:07:34;;;;;;;20.13;12.55;;;0.90;99.90;;;;;;5052208;28;20656;-76
2023/01/18 03:10:02;;;;;;;23.40;12.05;;;0.90;99.90;;;;;;5050689;28;20283;-76
2023/01/18 03:12:46;;;;;;;21.65;12.38;;;0.90;99.90;;;;;;5052231;28;20186;-76
2023/01/18 03:15:28;;;;;;;21.63;12.43;;;0.90;99.90;;;;;;5051065;28;20192;-75
2023/01/18 03:17:57;;;;;;;22.60;12.80;;;1.00;99.90;;;;;;5052518;28;20203;-76
2023/01/18 03:20:27;;;;;;;19.42;12.20;;;1.00;99.90;;;;;;5052172;28;20201;-76
2023/01/18 03:25:55;;;;;;;23.63;13.00;;;1.00;99.90;;;;;;5052192;28;20191;-74
2023/01/18 03:34:13;;;;;;;23.23;12.18;;;1.00;99.90;;;;;;5053010;28;20210;-76
2023/01/18 03:36:43;;;;;;;23.17;13.40;;;1.00;99.90;;;;;;5052086;28;20199;-76
2023/01/18 03:39:16;;;;;;;25.85;14.80;;;1.10;99.90;;;;;;5052009;28;20161;-76
2023/01/18 03:41:45;;;;;;;23.45;13.50;;;1.00;99.90;;;;;;5050897;28;20303;-75
2023/01/18 03:44:24;;;;;;;27.52;14.52;;;1.00;99.90;;;;;;5051915;28;20269;-75
2023/01/18 03:46:50;;;;;;;26.77;13.40;;;1.10;99.90;;;;;;5052216;28;20195;-76
2023/01/18 03:49:17;;;;;;;23.50;13.32;;;1.00;99.90;;;;;;5051962;28;20213;-76
2023/01/18 03:51:48;;;;;;;25.83;14.10;;;1.00;99.90;;;;;;5050630;28;20680;-76
2023/01/18 03:54:21;;;;;;;24.25;13.32;;;0.90;99.90;;;;;;5051832;28;20184;-77
2023/01/18 03:56:52;;;;;;;31.08;15.18;;;1.00;99.90;;;;;;5051822;28;20653;-77
2023/01/18 03:59:18;;;;;;;26.45;14.63;;;1.00;99.90;;;;;;5050303;28;20190;-77
2023/01/18 04:01:46;;;;;;;29.70;15.90;;;1.00;99.90;;;;;;5033625;28;20211;-76
2023/01/18 04:04:13;;;;;;;28.58;15.85;;;1.00;99.90;;;;;;5050348;28;20254;-76
2023/01/18 04:06:39;;;;;;;37.20;18.20;;;1.00;99.90;;;;;;5051474;28;20198;-76
2023/01/18 04:09:05;;;;;;;35.88;16.60;;;1.00;99.90;;;;;;5051469;28;20202;-76
2023/01/18 04:11:30;;;;;;;32.27;16.20;;;1.00;99.90;;;;;;5033420;28;20697;-76
2023/01/18 04:13:56;;;;;;;28.57;15.80;;;1.00;99.90;;;;;;5049867;28;20188;-76
2023/01/18 04:16:21;;;;;;;34.23;18.50;;;1.10;99.90;;;;;;5049961;28;20217;-76
2023/01/18 04:18:47;;;;;;;35.80;16.50;;;1.10;99.90;;;;;;5051313;28;20179;-77
2023/01/18 04:21:13;;;;;;;30.40;16.57;;;1.10;99.90;;;;;;5050158;28;20262;-76
2023/01/18 04:23:38;;;;;;;28.70;15.90;;;1.10;99.90;;;;;;5051356;28;20180;-77
2023/01/18 04:26:04;;;;;;;27.70;15.13;;;1.10;99.90;;;;;;5050273;28;20294;-76
2023/01/18 04:28:32;;;;;;;31.97;16.80;;;1.10;99.90;;;;;;5050048;28;20259;-76
2023/01/18 04:30:58;;;;;;;32.22;16.80;;;1.20;99.90;;;;;;5049881;28;20237;-76
2023/01/18 04:33:25;;;;;;;33.93;16.50;;;1.20;99.90;;;;;;5032893;28;20711;-75
2023/01/18 04:35:53;;;;;;;29.33;16.83;;;1.10;99.90;;;;;;5050046;28;20179;-75
2023/01/18 04:38:19;;;;;;;32.40;17.38;;;1.10;99.90;;;;;;5051526;28;20187;-76
2023/01/18 04:40:44;;;;;;;31.70;17.55;;;1.10;99.90;;;;;;5051800;28;20195;-76
2023/01/18 04:43:10;;;;;;;29.73;16.67;;;1.10;99.90;;;;;;5032959;28;20248;-77
2023/01/18 04:45:36;;;;;;;34.90;17.00;;;1.20;99.90;;;;;;5051559;28;20180;-78
2023/01/18 04:48:01;;;;;;;33.80;18.10;;;1.20;99.90;;;;;;5049805;28;20699;-80
2023/01/18 04:50:27;;;;;;;36.90;18.10;;;1.20;99.90;;;;;;5051462;28;20800;-77
2023/01/18 04:52:52;;;;;;;39.23;18.17;;;1.10;99.90;;;;;;5049976;28;20640;-76
2023/01/18 04:55:18;;;;;;;27.57;15.63;;;1.10;99.90;;;;;;5051985;28;20236;-76
2023/01/18 04:57:44;;;;;;;29.63;15.83;;;1.10;99.90;;;;;;5050472;28;20684;-78
2023/01/18 05:00:11;;;;;;;32.90;16.83;;;1.10;99.90;;;;;;5051162;28;20244;-76
2023/01/18 05:02:37;;;;;;;38.38;17.17;;;1.10;99.90;;;;;;5051280;28;20206;-75
2023/01/18 05:05:04;;;;;;;26.17;16.15;;;1.10;99.90;;;;;;5051057;28;20547;-75
2023/01/18 05:07:32;;;;;;;31.85;16.83;;;1.10;99.90;;;;;;5050956;28;20948;-77
2023/01/18 05:09:58;;;;;;;26.30;15.93;;;1.10;99.90;;;;;;5050657;28;20192;-75
2023/01/18 05:12:24;;;;;;;32.55;17.38;;;1.00;99.90;;;;;;5050594;28;20230;-76
2023/01/18 05:14:50;;;;;;;33.40;18.90;;;1.00;99.90;;;;;;5049476;28;20184;-77
2023/01/18 05:17:15;;;;;;;22.40;12.27;;;0.90;99.90;;;;;;5048933;28;20259;-75
2023/01/18 05:19:41;;;;;;;22.23;10.80;;;0.90;99.90;;;;;;5048603;28;20664;-76
2023/01/18 05:22:06;;;;;;;15.70;10.60;;;0.80;99.90;;;;;;5049887;28;20297;-75
2023/01/18 05:24:32;;;;;;;14.70;10.13;;;0.80;99.90;;;;;;5047271;28;20182;-75
2023/01/18 05:26:58;;;;;;;15.83;10.00;;;0.70;99.90;;;;;;5047497;28;20285;-76
2023/01/18 05:29:24;;;;;;;15.10;9.13;;;0.70;99.90;;;;;;5047324;28;20302;-75
2023/01/18 05:31:51;;;;;;;15.27;9.65;;;0.60;99.90;;;;;;5048545;28;20206;-75
2023/01/18 05:34:17;;;;;;;15.98;10.27;;;0.60;99.90;;;;;;5047142;28;20746;-76
2023/01/18 05:36:42;;;;;;;20.10;11.80;;;0.70;99.90;;;;;;5047160;28;20303;-75
2023/01/18 05:39:08;;;;;;;16.00;9.50;;;0.60;99.90;;;;;;5047043;28;20660;-76
2023/01/18 05:41:34;;;;;;;16.70;10.00;;;0.60;99.90;;;;;;5048759;28;20231;-76
2023/01/18 05:43:59;;;;;;;17.70;10.97;;;0.60;99.90;;;;;;5047436;28;20448;-75
2023/01/18 05:46:25;;;;;;;15.43;11.00;;;0.60;99.90;;;;;;5049680;28;20651;-75
2023/01/18 05:48:55;;;;;;;14.73;9.97;;;0.60;99.90;;;;;;5049948;28;20201;-75
2023/01/18 05:51:21;;;;;;;16.42;10.40;;;0.60;99.90;;;;;;5048742;28;20637;-75
2023/01/18 05:53:47;;;;;;;16.97;10.70;;;0.70;99.90;;;;;;5049819;28;20250;-75
2023/01/18 05:56:12;;;;;;;17.13;10.07;;;0.70;99.90;;;;;;5047640;28;20210;-76
2023/01/18 05:58:38;;;;;;;13.83;9.40;;;0.70;99.90;;;;;;5048392;28;20179;-75
2023/01/18 06:01:04;;;;;;;16.53;10.33;;;0.70;99.90;;;;;;5031235;28;20212;-75
2023/01/18 06:03:29;;;;;;;18.03;9.90;;;0.70;99.90;;;;;;5048086;28;20559;-75
2023/01/18 06:05:56;;;;;;;15.17;8.73;;;0.70;99.90;;;;;;5049162;28;20445;-76
2023/01/18 06:08:22;;;;;;;14.32;9.32;;;0.70;99.90;;;;;;5049233;28;20249;-77
2023/01/18 06:10:55;;;;;;;14.50;9.63;;;0.70;99.90;;;;;;5031000;28;20208;-75
2023/01/18 06:13:22;;;;;;;22.25;10.10;;;0.70;99.90;;;;;;5048745;28;20192;-76
2023/01/18 06:15:48;;;;;;;13.50;8.90;;;0.70;99.90;;;;;;5048809;28;20717;-76
2023/01/18 06:18:13;;;;;;;17.77;10.17;;;0.60;99.90;;;;;;5048771;28;20184;-76
2023/01/18 06:20:39;;;;;;;16.63;10.07;;;0.70;99.90;;;;;;5047378;28;20241;-75
2023/01/18 06:23:05;;;;;;;16.00;9.33;;;0.70;99.90;;;;;;5047580;28;20922;-75
2023/01/18 06:25:30;;;;;;;16.03;9.33;;;0.70;99.90;;;;;;5048728;28;20180;-75
2023/01/18 06:27:56;;;;;;;14.77;8.57;;;0.70;99.90;;;;;;5047428;28;20176;-76
2023/01/18 06:30:21;;;;;;;12.97;7.93;;;0.70;99.90;;;;;;5048557;28;20242;-77
2023/01/18 06:32:48;;;;;;;16.53;7.70;;;0.70;99.90;;;;;;5048717;28;20208;-76
2023/01/18 06:35:14;;;;;;;16.65;9.77;;;0.60;99.90;;;;;;5048487;28;20679;-75
2023/01/18 06:37:40;;;;;;;16.50;9.93;;;0.50;99.90;;;;;;5048573;28;20219;-76
2023/01/18 06:40:06;;;;;;;13.33;7.77;;;0.50;99.90;;;;;;5048468;28;20271;-74
2023/01/18 06:42:32;;;;;;;8.95;7.35;;;0.40;99.90;;;;;;5047019;28;20192;-76
2023/01/18 06:44:58;;;;;;;8.73;6.33;;;0.30;99.90;;;;;;5047152;28;20584;-75
2023/01/18 06:47:24;;;;;;;10.88;7.22;;;0.40;99.90;;;;;;5046977;28;20192;-75
2023/01/18 06:49:49;;;;;;;7.40;6.43;;;0.30;99.90;;;;;;5048505;28;20651;-75
2023/01/18 06:52:15;;;;;;;8.53;6.20;;;0.30;99.90;;;;;;5048305;28;20207;-76
2023/01/18 06:54:41;;;;;;;7.38;6.18;;;0.30;99.90;;;;;;5048423;28;20188;-75
2023/01/18 06:57:07;;;;;;;8.40;5.77;;;0.30;99.90;;;;;;5048434;28;20888;-75
2023/01/18 06:59:33;;;;;;;5.67;5.07;;;0.30;99.90;;;;;;5048389;28;20460;-74
2023/01/18 07:01:58;;;;;;;6.73;5.50;;;0.20;99.90;;;;;;5046936;28;20582;-77
2023/01/18 07:04:24;;;;;;;7.47;6.23;;;0.20;99.90;;;;;;5048830;28;20562;-76
2023/01/18 07:06:49;;;;;;;7.20;5.77;;;0.20;99.90;;;;;;5048891;28;20185;-74
2023/01/18 07:09:15;;;;;;;6.60;4.83;;;0.10;99.90;;;;;;5050986;28;20605;-74
2023/01/18 07:11:42;;;;;;;5.23;4.73;;;0.20;99.90;;;;;;5050704;28;20268;-76
2023/01/18 07:14:10;;;;;;;6.97;5.80;;;0.20;99.90;;;;;;5050685;28;20218;-76
2023/01/18 07:16:35;;;;;;;10.05;6.10;;;0.30;99.90;;;;;;5050499;28;20394;-75
2023/01/18 07:19:02;;;;;;;6.93;4.33;;;0.30;99.90;;;;;;5050781;28;20733;-75
2023/01/18 07:21:28;;;;;;;10.13;6.25;;;0.30;99.90;;;;;;5050819;28;20762;-78
2023/01/18 07:23:56;;;;;;;11.23;6.53;;;0.30;99.90;;;;;;5050920;28;20194;-75
2023/01/18 07:26:22;;;;;;;9.38;5.82;;;0.30;99.90;;;;;;5050813;28;20185;-75
2023/01/18 07:28:48;;;;;;;5.75;4.78;;;0.30;99.90;;;;;;5048983;28;20190;-75
2023/01/18 07:31:15;;;;;;;9.53;5.83;;;0.30;99.90;;;;;;5048811;28;20710;-76
2023/01/18 07:33:41;;;;;;;6.45;5.55;;;0.40;99.90;;;;;;5050690;28;20184;-77
2023/01/18 07:36:09;;;;;;;16.17;9.57;;;0.40;99.90;;;;;;5050413;28;20286;-77
2023/01/18 07:38:35;;;;;;;17.77;10.13;;;0.40;99.90;;;;;;5049038;28;20181;-76
2023/01/18 07:41:13;;;;;;;9.98;6.90;;;0.50;99.90;;;;;;5048862;28;20239;-77
2023/01/18 07:43:39;;;;;;;13.15;8.80;;;0.50;99.90;;;;;;5050408;28;20205;-77
2023/01/18 07:46:08;;;;;;;12.30;7.65;;;0.50;99.90;;;;;;5050274;28;20203;-75
2023/01/18 07:48:33;;;;;;;8.00;5.35;;;0.50;99.90;;;;;;5049007;28;20529;-75
2023/01/18 07:51:05;;;;;;;8.00;5.53;;;0.50;99.90;;;;;;5048853;28;20234;-76
2023/01/18 07:53:32;;;;;;;27.50;13.38;;;0.50;99.90;;;;;;5050386;28;20614;-76
2023/01/18 07:56:13;;;;;;;10.82;5.55;;;0.50;99.90;;;;;;5048677;28;20670;-76
2023/01/18 07:58:39;;;;;;;9.55;6.07;;;0.60;99.90;;;;;;5049986;28;20184;-76
2023/01/18 08:01:08;;;;;;;4.75;3.85;;;0.60;99.90;;;;;;5049664;28;20274;-76
2023/01/18 08:03:35;;;;;;;5.35;4.50;;;0.60;99.90;;;;;;5050189;28;20187;-76
2023/01/18 08:06:02;;;;;;;4.78;4.28;;;0.70;99.90;;;;;;5050274;28;20172;-75
2023/01/18 08:08:28;;;;;;;9.27;5.40;;;0.70;99.90;;;;;;5049784;28;20184;-75
2023/01/18 08:10:55;;;;;;;8.38;5.97;;;0.60;99.90;;;;;;5049678;28;20238;-76
2023/01/18 08:13:21;;;;;;;11.63;5.22;;;0.70;99.90;;;;;;5049807;28;20171;-75
2023/01/18 08:15:47;;;;;;;6.63;4.95;;;0.60;99.90;;;;;;5049711;28;20607;-75
2023/01/18 08:18:13;;;;;;;5.10;4.57;;;0.60;99.90;;;;;;5047587;28;20212;-78
2023/01/18 08:20:42;;;;;;;6.50;4.20;;;0.70;99.90;;;;;;5031559;28;20200;-78
2023/01/18 08:23:08;;;;;;;7.57;4.97;;;0.80;99.90;;;;;;5048138;28;20184;-77
2023/01/18 08:25:33;;;;;;;8.73;6.00;;;0.80;99.90;;;;;;5031661;28;20191;-78
2023/01/18 08:28:01;;;;;;;8.37;5.67;;;0.80;99.90;;;;;;5049438;28;20271;-77
2023/01/18 08:30:30;;;;;;;9.70;5.75;;;0.70;99.90;;;;;;5048243;28;20282;-78
2023/01/18 08:32:57;;;;;;;5.85;4.28;;;0.90;99.90;;;;;;5049407;28;20188;-77
2023/01/18 08:35:25;;;;;;;4.60;4.00;;;0.70;99.90;;;;;;5049391;28;20185;-78
2023/01/18 08:37:51;;;;;;;4.63;4.10;;;0.70;99.90;;;;;;5049066;28;20234;-78
2023/01/18 08:40:18;;;;;;;6.57;4.63;;;0.60;99.90;;;;;;5047871;28;20263;-75
2023/01/18 08:42:45;;;;;;;5.97;4.88;;;0.70;99.90;;;;;;5048373;28;20718;-77
2023/01/18 08:45:12;;;;;;;8.00;5.95;;;0.70;99.90;;;;;;5048256;28;20229;-78
2023/01/18 08:47:37;;;;;;;10.13;6.65;;;0.80;99.90;;;;;;5046626;28;20188;-77
2023/01/18 08:50:04;;;;;;;9.23;4.13;;;0.80;99.90;;;;;;5048428;28;20597;-78
2023/01/18 08:52:29;;;;;;;10.07;6.13;;;0.70;99.90;;;;;;5048103;28;20258;-78
2023/01/18 08:54:55;;;;;;;6.87;4.67;;;0.80;99.90;;;;;;5048138;28;20769;-77
2023/01/18 08:57:21;;;;;;;5.67;4.67;;;0.70;99.90;;;;;;5046939;28;20214;-78
2023/01/18 08:59:47;;;;;;;6.50;4.93;;;0.70;99.90;;;;;;5046171;28;20188;-78
2023/01/18 09:02:12;;;;;;;6.27;5.67;;;0.80;99.90;;;;;;5029988;28;20213;-77
2023/01/18 09:04:38;;;;;;;6.93;4.67;;;0.70;99.90;;;;;;5046651;28;20715;-77
2023/01/18 09:07:03;;;;;;;7.03;4.90;;;0.80;99.90;;;;;;5046406;28;20176;-79
2023/01/18 09:09:29;;;;;;;8.07;5.57;;;0.80;99.90;;;;;;5029726;28;20274;-76
2023/01/18 09:11:58;;;;;;;6.97;5.27;;;0.80;99.90;;;;;;5046403;28;20204;-76
2023/01/18 09:14:24;;;;;;;11.32;9.35;;;0.80;99.90;;;;;;5046177;28;20636;-77
2023/01/18 09:16:49;;;;;;;8.20;5.47;;;0.90;99.90;;;;;;5046535;28;20386;-77
2023/01/18 09:19:15;;;;;;;7.70;6.90;;;0.90;99.90;;;;;;5047813;28;20184;-77
2023/01/18 09:21:40;;;;;;;7.40;6.70;;;0.90;99.90;;;;;;5046809;28;20200;-76
2023/01/18 09:24:06;;;;;;;11.10;6.90;;;1.00;99.90;;;;;;5048500;28;20185;-78
2023/01/18 09:26:32;;;;;;;7.45;6.40;;;1.00;99.90;;;;;;5047718;28;20219;-79
2023/01/18 09:28:58;;;;;;;6.90;5.60;;;1.00;99.90;;;;;;5048747;28;20227;-78
2023/01/18 09:31:25;;;;;;;6.80;4.97;;;1.00;99.90;;;;;;5046119;28;20210;-77
2023/01/18 09:33:51;;;;;;;6.07;4.72;;;0.90;99.90;;;;;;5046677;28;20730;-77
2023/01/18 09:36:17;;;;;;;7.23;5.27;;;0.90;99.90;;;;;;5047927;28;20215;-77
2023/01/18 09:38:44;;;;;;;8.68;5.50;;;0.80;99.90;;;;;;5048234;28;20229;-77
2023/01/18 09:41:37;;;;;;;5.88;4.80;;;0.70;99.90;;;;;;5048489;28;20231;-78
2023/01/18 09:44:16;;;;;;;6.05;4.05;;;0.70;99.90;;;;;;5048086;28;20205;-77
2023/01/18 09:46:43;;;;;;;7.10;4.65;;;0.60;99.90;;;;;;5047030;28;20292;-77
2023/01/18 09:49:22;;;;;;;6.88;4.60;;;0.60;99.90;;;;;;5030742;28;20675;-77
2023/01/18 09:52:18;;;;;;;4.55;3.75;;;0.60;99.90;;;;;;5048449;28;20275;-77
2023/01/18 09:54:57;;;;;;;5.88;3.85;;;0.60;99.90;;;;;;5046940;28;20183;-78
2023/01/18 09:57:36;;;;;;;6.15;3.90;;;0.60;99.90;;;;;;5048050;28;20729;-77
2023/01/18 10:00:13;;;;;;;3.67;3.30;;;0.60;99.90;;;;;;5048294;28;20226;-78
2023/01/18 10:02:42;;;;;;;5.68;4.32;;;0.60;99.90;;;;;;5048418;28;20238;-78
2023/01/18 10:05:16;;;;;;;4.15;3.83;;;0.60;99.90;;;;;;5046956;28;20203;-76
2023/01/18 10:08:01;;;;;;;3.47;3.15;;;0.60;99.90;;;;;;5048429;28;20222;-77
2023/01/18 10:10:51;;;;;;;4.55;3.58;;;0.60;99.90;;;;;;5048515;28;20196;-79
2023/01/18 10:13:36;;;;;;;6.50;4.60;;;0.70;99.90;;;;;;5039123;28;20188;-77
2023/01/18 10:16:03;;;;;;;7.28;3.67;;;0.80;99.90;;;;;;5049069;28;20163;-76
2023/01/18 10:18:29;;;;;;;4.15;3.28;;;0.80;99.90;;;;;;5047240;28;20191;-78
2023/01/18 10:21:00;;;;;;;3.80;3.45;;;0.80;99.90;;;;;;5047249;28;20199;-78
2023/01/18 10:24:08;;;;;;;4.88;4.07;;;0.80;99.90;;;;;;5048553;28;20168;-76
2023/01/18 10:26:37;;;;;;;4.95;3.70;;;0.80;99.90;;;;;;5048539;28;20172;-77
2023/01/18 10:29:13;;;;;;;5.32;4.22;;;0.90;99.90;;;;;;5048570;28;20735;-77
2023/01/18 10:31:54;;;;;;;7.50;3.78;;;0.90;99.90;;;;;;5047112;28;20208;-77
2023/01/18 10:34:22;;;;;;;5.72;3.50;;;0.90;99.90;;;;;;5048616;28;20176;-77
2023/01/18 10:37:03;;;;;;;6.63;3.97;;;1.00;99.90;;;;;;5046610;28;20238;-78
2023/01/18 10:39:41;;;;;;;4.85;3.30;;;1.00;99.90;;;;;;5048054;28;20523;-76
2023/01/18 10:42:22;;;;;;;6.82;4.05;;;0.90;99.90;;;;;;5050583;28;20210;-77
2023/01/18 10:44:47;;;;;;;5.22;3.63;;;1.00;99.90;;;;;;5052124;28;20180;-79
2023/01/18 10:47:16;;;;;;;5.77;3.90;;;1.10;99.90;;;;;;5050322;28;20193;-78
2023/01/18 10:49:43;;;;;;;4.72;4.00;;;1.20;99.90;;;;;;5051834;28;20437;-76
2023/01/18 10:52:25;;;;;;;5.68;3.95;;;1.20;99.90;;;;;;5051294;28;20239;-78
2023/01/18 10:54:57;;;;;;;3.50;3.20;;;1.20;99.90;;;;;;5051752;28;20180;-77
2023/01/18 10:57:27;;;;;;;5.18;3.40;;;1.20;99.90;;;;;;5051786;28;20207;-77
2023/01/18 10:59:55;;;;;;;8.48;3.67;;;1.30;99.90;;;;;;5051219;28;20291;-76
2023/01/18 11:02:35;;;;;;;4.53;3.70;;;1.30;99.90;;;;;;5050289;28;20201;-78
2023/01/18 11:05:20;;;;;;;8.00;4.28;;;1.30;99.90;;;;;;5051986;28;20160;-76
2023/01/18 11:07:46;;;;;;;4.43;3.40;;;1.20;99.90;;;;;;5052256;28;20169;-76
2023/01/18 11:10:26;;;;;;;3.97;3.58;;;1.20;99.90;;;;;;5052111;28;20226;-77
2023/01/18 11:12:53;;;;;;;4.80;3.55;;;1.10;99.90;;;;;;5034102;28;20219;-78
2023/01/18 11:15:18;;;;;;;3.92;3.58;;;1.10;99.90;;;;;;5052197;28;20211;-77
2023/01/18 11:17:54;;;;;;;4.10;3.40;;;1.00;99.90;;;;;;5052020;28;20215;-78
2023/01/18 11:20:22;;;;;;;6.43;3.42;;;1.00;99.90;;;;;;5052289;28;20569;-77
2023/01/18 11:23:04;;;;;;;3.63;3.33;;;1.00;99.90;;;;;;5050725;28;20824;-76
2023/01/18 11:25:41;;;;;;;4.15;3.08;;;1.00;99.90;;;;;;5051856;28;20169;-77
2023/01/18 11:28:36;;;;;;;4.35;3.50;;;1.10;99.90;;;;;;5051583;28;20176;-77
2023/01/18 11:31:11;;;;;;;4.25;3.60;;;1.00;99.90;;;;;;5048553;28;20319;-76
2023/01/18 11:33:48;;;;;;;4.80;3.47;;;1.10;99.90;;;;;;5050270;28;20182;-76
2023/01/18 11:36:15;;;;;;;3.72;2.90;;;1.00;99.90;;;;;;5049739;28;20212;-80
2023/01/18 11:38:41;;;;;;;4.60;4.20;;;1.00;99.90;;;;;;5051281;28;20184;-76
2023/01/18 11:41:22;;;;;;;4.90;3.67;;;1.00;99.90;;;;;;5051332;28;20222;-77
2023/01/18 11:43:59;;;;;;;3.67;3.38;;;0.90;99.90;;;;;;5051419;28;20206;-77
2023/01/18 11:46:35;;;;;;;3.47;3.17;;;0.90;99.90;;;;;;5049724;28;20264;-77
2023/01/18 11:49:19;;;;;;;3.80;3.40;;;0.90;99.90;;;;;;5051370;28;20682;-77
2023/01/18 11:51:50;;;;;;;4.00;3.60;;;0.80;99.90;;;;;;5051557;28;20705;-79
2023/01/18 11:54:39;;;;;;;5.25;3.40;;;0.90;99.90;;;;;;5048819;28;20653;-76
2023/01/18 11:57:09;;;;;;;4.38;3.50;;;0.80;99.90;;;;;;5051408;28;20630;-78
2023/01/18 11:59:40;;;;;;;6.90;4.00;;;0.90;99.90;;;;;;5050186;28;20568;-78
2023/01/18 12:02:18;;;;;;;5.80;4.40;;;0.90;99.90;;;;;;5049135;28;20259;-77
2023/01/18 12:05:05;;;;;;;7.88;4.00;;;0.90;99.90;;;;;;5050145;28;20204;-76
2023/01/18 12:07:47;;;;;;;4.22;3.83;;;0.90;99.90;;;;;;5050140;28;20205;-77
2023/01/18 12:10:25;;;;;;;6.53;5.30;;;0.80;99.90;;;;;;5048607;28;20184;-78
2023/01/18 12:13:18;;;;;;;8.10;5.00;;;0.90;99.90;;;;;;5049178;28;20180;-77
2023/01/18 12:15:54;;;;;;;7.05;4.97;;;1.00;99.90;;;;;;5049705;28;20679;-76
2023/01/18 12:18:46;;;;;;;9.63;5.60;;;1.00;99.90;;;;;;5048766;28;20203;-77
2023/01/18 12:21:30;;;;;;;9.35;4.90;;;1.10;99.90;;;;;;5048475;28;20579;-77
2023/01/18 12:24:05;;;;;;;7.32;5.28;;;1.20;99.90;;;;;;5050713;28;20165;-77
2023/01/18 12:26:37;;;;;;;7.47;5.32;;;1.20;99.90;;;;;;5049961;28;20167;-78
2023/01/18 12:29:15;;;;;;;12.10;6.05;;;1.20;99.90;;;;;;5048272;28;20173;-77
2023/01/18 12:32:02;;;;;;;6.70;5.70;;;1.20;99.90;;;;;;5049643;28;20262;-79
2023/01/18 12:35:01;;;;;;;9.73;5.45;;;1.30;99.90;;;;;;5049621;28;20211;-77
2023/01/18 12:37:30;;;;;;;8.35;4.82;;;1.30;99.90;;;;;;5040405;28;20294;-77
2023/01/18 12:40:10;;;;;;;5.43;4.43;;;1.30;99.90;;;;;;5049719;28;20172;-78
2023/01/18 12:42:39;;;;;;;5.15;4.65;;;1.30;99.90;;;;;;5049673;28;20180;-77
2023/01/18 12:45:35;;;;;;;6.60;5.25;;;1.20;99.90;;;;;;5048167;28;20185;-77
2023/01/18 12:48:06;;;;;;;6.30;5.30;;;1.20;99.90;;;;;;5048128;28;20562;-78
2023/01/18 12:50:37;;;;;;;11.07;5.20;;;1.10;99.90;;;;;;5048017;28;20208;-78
2023/01/18 12:53:09;;;;;;;5.95;4.80;;;1.20;99.90;;;;;;5049410;28;20218;-78
2023/01/18 12:55:38;;;;;;;7.55;5.10;;;1.20;99.90;;;;;;5049548;28;20184;-77
2023/01/18 12:58:05;;;;;;;6.88;4.95;;;1.20;99.90;;;;;;5048044;28;20208;-78
2023/01/18 13:00:38;;;;;;;7.53;4.68;;;1.20;99.90;;;;;;5047349;28;20607;-77
2023/01/18 13:03:10;;;;;;;11.25;5.00;;;1.20;99.90;;;;;;5049659;28;20184;-78
2023/01/18 13:05:56;;;;;;;8.48;4.57;;;1.30;99.90;;;;;;5048685;28;20539;-77
2023/01/18 13:08:34;;;;;;;5.93;4.63;;;1.40;99.90;;;;;;5047137;28;20176;-77
2023/01/18 13:11:36;;;;;;;7.35;4.78;;;1.30;99.90;;;;;;5047201;28;20207;-77
2023/01/18 13:14:23;;;;;;;9.85;4.28;;;1.30;99.90;;;;;;5026693;28;20195;-77
2023/01/18 13:17:16;;;;;;;4.50;3.80;;;1.40;99.90;;;;;;5048363;28;20204;-77
2023/01/18 13:19:48;;;;;;;6.80;4.00;;;1.40;99.90;;;;;;5048212;28;20688;-77
2023/01/18 13:22:30;;;;;;;3.95;3.65;;;1.40;99.90;;;;;;5048190;28;20212;-77
2023/01/18 13:25:14;;;;;;;5.88;3.30;;;1.30;99.90;;;;;;5048001;28;20179;-78
2023/01/18 13:27:59;;;;;;;6.13;4.20;;;1.40;99.90;;;;;;5047923;28;20198;-78
2023/01/18 13:30:25;;;;;;;6.53;4.05;;;1.30;99.90;;;;;;5048055;28;20207;-78
2023/01/18 13:32:52;;;;;;;7.18;3.80;;;1.40;99.90;;;;;;5048089;28;20212;-75
2023/01/18 13:35:27;;;;;;;4.20;3.38;;;1.30;99.90;;;;;;5046405;28;20192;-77
2023/01/18 13:38:00;;;;;;;5.70;3.90;;;1.20;99.90;;;;;;5046456;28;20200;-78
2023/01/18 13:40:36;;;;;;;5.10;3.50;;;1.20;99.90;;;;;;5046683;28;20291;-77
2023/01/18 13:43:04;;;;;;;5.68;3.83;;;1.20;99.90;;;;;;5046308;28;20211;-77